Glenburnie, Maryland
Current Conditions -  °F | °C
As of 11:31 AM on Wednesday 26 Nov 2014 (Local Time) from KBWI Reporting Station
Moderate Snow Moderate Snow  
Wind Chill: 34°   Ceiling: 700
Heat Index: 34°   Visibility: 0.5mi
Dew Point: 32°   Wind: 3mph
Humidity: 93%   Direction: 330°NNW
Pressure: 30.03"   Gusts: NA
Location:  39.1648°N, 76.6418°W
Report Text: KBWI 261631Z 33003KT 1/2SM R10/4000V5500FT SN FG VV007 01/00 A3003 RMK AO2 P0013
Loading
Personal Weather Stations






























Interactive Weather Map New forecast layout! Learn more

10-Day Weather Forecast

Advertisements
Track Severe Weather on mobile